sensor_id;sensor_type;location;lat;lon;timestamp;P1;durP1;ratioP1;P2;durP2;ratioP2
52450;SDS011;38366;53.176;6.540;2022-08-18T00:02:05;13.10;;;5.32;;
52450;SDS011;38366;53.176;6.540;2022-08-18T00:04:33;13.20;;;4.93;;
52450;SDS011;38366;53.176;6.540;2022-08-18T00:07:03;12.82;;;4.45;;
52450;SDS011;38366;53.176;6.540;2022-08-18T00:09:35;12.35;;;5.05;;
52450;SDS011;38366;53.176;6.540;2022-08-18T00:12:04;15.70;;;5.35;;
52450;SDS011;38366;53.176;6.540;2022-08-18T00:14:34;15.13;;;5.35;;
52450;SDS011;38366;53.176;6.540;2022-08-18T00:17:00;14.35;;;5.88;;
52450;SDS011;38366;53.176;6.540;2022-08-18T00:19:26;10.20;;;5.32;;
52450;SDS011;38366;53.176;6.540;2022-08-18T00:21:51;10.38;;;4.95;;
52450;SDS011;38366;53.176;6.540;2022-08-18T00:24:17;10.57;;;5.65;;
52450;SDS011;38366;53.176;6.540;2022-08-18T00:26:42;12.68;;;5.25;;
52450;SDS011;38366;53.176;6.540;2022-08-18T00:29:08;10.20;;;4.90;;
52450;SDS011;38366;53.176;6.540;2022-08-18T00:31:34;18.13;;;5.93;;
52450;SDS011;38366;53.176;6.540;2022-08-18T00:34:00;13.30;;;5.57;;
52450;SDS011;38366;53.176;6.540;2022-08-18T00:36:26;19.75;;;5.57;;
52450;SDS011;38366;53.176;6.540;2022-08-18T00:38:52;12.50;;;5.28;;
52450;SDS011;38366;53.176;6.540;2022-08-18T00:41:19;10.52;;;5.32;;
52450;SDS011;38366;53.176;6.540;2022-08-18T00:46:15;10.40;;;5.38;;
52450;SDS011;38366;53.176;6.540;2022-08-18T00:48:46;10.63;;;5.55;;
52450;SDS011;38366;53.176;6.540;2022-08-18T00:51:23;11.60;;;5.72;;
52450;SDS011;38366;53.176;6.540;2022-08-18T00:54:11;12.48;;;5.32;;
52450;SDS011;38366;53.176;6.540;2022-08-18T00:56:51;9.90;;;5.50;;
52450;SDS011;38366;53.176;6.540;2022-08-18T00:59:23;15.10;;;6.32;;
52450;SDS011;38366;53.176;6.540;2022-08-18T01:02:15;17.30;;;5.90;;
52450;SDS011;38366;53.176;6.540;2022-08-18T01:04:52;13.10;;;5.78;;
52450;SDS011;38366;53.176;6.540;2022-08-18T01:07:35;16.92;;;5.53;;
52450;SDS011;38366;53.176;6.540;2022-08-18T01:10:07;16.63;;;6.45;;
52450;SDS011;38366;53.176;6.540;2022-08-18T01:12:32;16.92;;;6.32;;
52450;SDS011;38366;53.176;6.540;2022-08-18T01:14:58;15.20;;;6.57;;
52450;SDS011;38366;53.176;6.540;2022-08-18T01:17:25;14.98;;;6.30;;
52450;SDS011;38366;53.176;6.540;2022-08-18T01:20:11;14.63;;;5.72;;
52450;SDS011;38366;53.176;6.540;2022-08-18T01:23:08;16.58;;;6.20;;
52450;SDS011;38366;53.176;6.540;2022-08-18T01:25:40;18.90;;;6.32;;
52450;SDS011;38366;53.176;6.540;2022-08-18T01:28:32;18.30;;;6.28;;
52450;SDS011;38366;53.176;6.540;2022-08-18T01:31:04;16.92;;;6.53;;
52450;SDS011;38366;53.176;6.540;2022-08-18T01:33:31;16.52;;;6.85;;
52450;SDS011;38366;53.176;6.540;2022-08-18T01:36:21;17.98;;;7.38;;
52450;SDS011;38366;53.176;6.540;2022-08-18T01:38:47;13.77;;;6.45;;
52450;SDS011;38366;53.176;6.540;2022-08-18T01:41:19;15.13;;;6.82;;
52450;SDS011;38366;53.176;6.540;2022-08-18T01:43:46;16.58;;;6.68;;
52450;SDS011;38366;53.176;6.540;2022-08-18T01:46:14;16.25;;;6.85;;
52450;SDS011;38366;53.176;6.540;2022-08-18T01:48:44;14.98;;;7.07;;
52450;SDS011;38366;53.176;6.540;2022-08-18T01:51:11;18.58;;;7.10;;
52450;SDS011;38366;53.176;6.540;2022-08-18T01:53:37;24.52;;;7.82;;
52450;SDS011;38366;53.176;6.540;2022-08-18T01:56:03;18.52;;;7.60;;
52450;SDS011;38366;53.176;6.540;2022-08-18T01:58:33;17.48;;;6.72;;
52450;SDS011;38366;53.176;6.540;2022-08-18T02:01:00;14.38;;;6.95;;
52450;SDS011;38366;53.176;6.540;2022-08-18T02:03:29;14.70;;;7.10;;
52450;SDS011;38366;53.176;6.540;2022-08-18T02:06:00;20.33;;;7.78;;
52450;SDS011;38366;53.176;6.540;2022-08-18T02:08:28;16.42;;;7.47;;
52450;SDS011;38366;53.176;6.540;2022-08-18T02:10:54;18.48;;;7.75;;
52450;SDS011;38366;53.176;6.540;2022-08-18T02:13:23;18.27;;;7.55;;
52450;SDS011;38366;53.176;6.540;2022-08-18T02:15:49;20.70;;;8.20;;
52450;SDS011;38366;53.176;6.540;2022-08-18T02:18:25;15.70;;;7.45;;
52450;SDS011;38366;53.176;6.540;2022-08-18T02:20:53;15.13;;;7.60;;
52450;SDS011;38366;53.176;6.540;2022-08-18T02:23:19;22.88;;;8.23;;
52450;SDS011;38366;53.176;6.540;2022-08-18T02:25:45;17.02;;;7.60;;
52450;SDS011;38366;53.176;6.540;2022-08-18T02:28:11;19.85;;;8.13;;
52450;SDS011;38366;53.176;6.540;2022-08-18T02:30:37;18.48;;;8.52;;
52450;SDS011;38366;53.176;6.540;2022-08-18T02:35:30;21.60;;;8.05;;
52450;SDS011;38366;53.176;6.540;2022-08-18T02:40:28;20.83;;;8.35;;
52450;SDS011;38366;53.176;6.540;2022-08-18T02:42:57;16.88;;;7.90;;
52450;SDS011;38366;53.176;6.540;2022-08-18T02:47:53;20.25;;;8.23;;
52450;SDS011;38366;53.176;6.540;2022-08-18T02:50:19;17.15;;;8.15;;
52450;SDS011;38366;53.176;6.540;2022-08-18T02:52:46;16.25;;;7.72;;
52450;SDS011;38366;53.176;6.540;2022-08-18T02:55:13;15.55;;;7.47;;
52450;SDS011;38366;53.176;6.540;2022-08-18T02:57:40;18.88;;;7.68;;
52450;SDS011;38366;53.176;6.540;2022-08-18T03:00:08;20.20;;;7.95;;
52450;SDS011;38366;53.176;6.540;2022-08-18T03:02:37;23.67;;;8.48;;
52450;SDS011;38366;53.176;6.540;2022-08-18T03:05:03;18.63;;;8.52;;
52450;SDS011;38366;53.176;6.540;2022-08-18T03:07:29;18.80;;;7.82;;
52450;SDS011;38366;53.176;6.540;2022-08-18T03:09:55;26.92;;;9.35;;
52450;SDS011;38366;53.176;6.540;2022-08-18T03:12:21;18.02;;;8.55;;
52450;SDS011;38366;53.176;6.540;2022-08-18T03:14:47;13.02;;;8.10;;
52450;SDS011;38366;53.176;6.540;2022-08-18T03:17:13;14.90;;;8.23;;
52450;SDS011;38366;53.176;6.540;2022-08-18T03:19:39;20.40;;;8.73;;
52450;SDS011;38366;53.176;6.540;2022-08-18T03:22:07;20.75;;;8.88;;
52450;SDS011;38366;53.176;6.540;2022-08-18T03:24:33;17.25;;;8.93;;
52450;SDS011;38366;53.176;6.540;2022-08-18T03:27:02;24.27;;;10.48;;
52450;SDS011;38366;53.176;6.540;2022-08-18T03:29:30;18.42;;;9.70;;
52450;SDS011;38366;53.176;6.540;2022-08-18T03:31:56;18.98;;;9.30;;
52450;SDS011;38366;53.176;6.540;2022-08-18T03:34:22;16.45;;;9.40;;
52450;SDS011;38366;53.176;6.540;2022-08-18T03:36:48;20.92;;;9.43;;
52450;SDS011;38366;53.176;6.540;2022-08-18T03:39:14;21.60;;;10.27;;
52450;SDS011;38366;53.176;6.540;2022-08-18T03:41:42;17.15;;;9.18;;
52450;SDS011;38366;53.176;6.540;2022-08-18T03:44:10;17.48;;;9.90;;
52450;SDS011;38366;53.176;6.540;2022-08-18T03:46:42;17.20;;;9.50;;
52450;SDS011;38366;53.176;6.540;2022-08-18T03:49:08;22.00;;;10.13;;
52450;SDS011;38366;53.176;6.540;2022-08-18T03:51:34;15.35;;;8.85;;
52450;SDS011;38366;53.176;6.540;2022-08-18T03:56:28;18.20;;;9.73;;
52450;SDS011;38366;53.176;6.540;2022-08-18T03:59:00;18.17;;;10.13;;
52450;SDS011;38366;53.176;6.540;2022-08-18T04:01:35;17.83;;;9.70;;
52450;SDS011;38366;53.176;6.540;2022-08-18T04:04:04;19.00;;;9.50;;
52450;SDS011;38366;53.176;6.540;2022-08-18T04:06:32;16.83;;;10.23;;
52450;SDS011;38366;53.176;6.540;2022-08-18T04:09:02;19.88;;;10.02;;
52450;SDS011;38366;53.176;6.540;2022-08-18T04:11:32;21.25;;;11.13;;
52450;SDS011;38366;53.176;6.540;2022-08-18T04:13:59;20.95;;;9.93;;
52450;SDS011;38366;53.176;6.540;2022-08-18T04:16:26;18.88;;;9.73;;
52450;SDS011;38366;53.176;6.540;2022-08-18T04:18:54;18.83;;;10.77;;
52450;SDS011;38366;53.176;6.540;2022-08-18T04:21:23;15.98;;;9.85;;
52450;SDS011;38366;53.176;6.540;2022-08-18T04:23:49;16.77;;;10.30;;
52450;SDS011;38366;53.176;6.540;2022-08-18T04:26:15;17.17;;;10.32;;
52450;SDS011;38366;53.176;6.540;2022-08-18T04:28:42;18.80;;;10.30;;
52450;SDS011;38366;53.176;6.540;2022-08-18T04:31:13;22.42;;;10.32;;
52450;SDS011;38366;53.176;6.540;2022-08-18T04:33:39;16.55;;;9.82;;
52450;SDS011;38366;53.176;6.540;2022-08-18T04:36:10;17.65;;;10.27;;
52450;SDS011;38366;53.176;6.540;2022-08-18T04:38:40;17.10;;;10.80;;
52450;SDS011;38366;53.176;6.540;2022-08-18T04:41:06;17.65;;;10.35;;
52450;SDS011;38366;53.176;6.540;2022-08-18T04:43:33;17.63;;;10.23;;
52450;SDS011;38366;53.176;6.540;2022-08-18T04:45:59;17.75;;;11.85;;
52450;SDS011;38366;53.176;6.540;2022-08-18T04:48:36;17.83;;;10.57;;
52450;SDS011;38366;53.176;6.540;2022-08-18T04:51:08;18.77;;;11.15;;
52450;SDS011;38366;53.176;6.540;2022-08-18T04:53:36;14.82;;;10.80;;
52450;SDS011;38366;53.176;6.540;2022-08-18T04:56:12;14.25;;;10.55;;
52450;SDS011;38366;53.176;6.540;2022-08-18T04:58:49;19.75;;;11.27;;
52450;SDS011;38366;53.176;6.540;2022-08-18T05:01:28;18.00;;;12.35;;
52450;SDS011;38366;53.176;6.540;2022-08-18T05:03:56;17.00;;;11.73;;
52450;SDS011;38366;53.176;6.540;2022-08-18T05:06:23;16.27;;;11.57;;
52450;SDS011;38366;53.176;6.540;2022-08-18T05:08:51;17.70;;;11.20;;
52450;SDS011;38366;53.176;6.540;2022-08-18T05:11:19;16.85;;;11.23;;
52450;SDS011;38366;53.176;6.540;2022-08-18T05:13:46;13.93;;;11.48;;
52450;SDS011;38366;53.176;6.540;2022-08-18T05:16:12;18.30;;;12.27;;
52450;SDS011;38366;53.176;6.540;2022-08-18T05:18:38;20.02;;;11.80;;
52450;SDS011;38366;53.176;6.540;2022-08-18T05:21:07;14.48;;;11.77;;
52450;SDS011;38366;53.176;6.540;2022-08-18T05:23:38;20.98;;;12.77;;
52450;SDS011;38366;53.176;6.540;2022-08-18T05:26:07;16.95;;;12.13;;
52450;SDS011;38366;53.176;6.540;2022-08-18T05:28:32;21.15;;;12.02;;
52450;SDS011;38366;53.176;6.540;2022-08-18T05:31:05;15.75;;;11.18;;
52450;SDS011;38366;53.176;6.540;2022-08-18T05:33:35;17.13;;;12.57;;
52450;SDS011;38366;53.176;6.540;2022-08-18T05:36:04;16.17;;;9.82;;
52450;SDS011;38366;53.176;6.540;2022-08-18T05:39:21;19.38;;;9.65;;
52450;SDS011;38366;53.176;6.540;2022-08-18T05:41:28;14.30;;;8.80;;
52450;SDS011;38366;53.176;6.540;2022-08-18T05:43:58;16.20;;;8.98;;
52450;SDS011;38366;53.176;6.540;2022-08-18T05:46:31;13.57;;;8.52;;
52450;SDS011;38366;53.176;6.540;2022-08-18T05:49:04;16.73;;;8.85;;
52450;SDS011;38366;53.176;6.540;2022-08-18T05:51:36;14.40;;;8.43;;
52450;SDS011;38366;53.176;6.540;2022-08-18T05:54:04;15.40;;;7.45;;
52450;SDS011;38366;53.176;6.540;2022-08-18T05:56:50;13.82;;;6.07;;
52450;SDS011;38366;53.176;6.540;2022-08-18T05:59:27;13.50;;;6.55;;
52450;SDS011;38366;53.176;6.540;2022-08-18T06:02:03;14.15;;;6.35;;
52450;SDS011;38366;53.176;6.540;2022-08-18T06:07:03;13.45;;;7.50;;
52450;SDS011;38366;53.176;6.540;2022-08-18T06:09:34;12.70;;;9.13;;
52450;SDS011;38366;53.176;6.540;2022-08-18T06:15:07;9.57;;;8.45;;
52450;SDS011;38366;53.176;6.540;2022-08-18T06:21:04;16.42;;;7.38;;
52450;SDS011;38366;53.176;6.540;2022-08-18T06:23:41;12.73;;;7.85;;
52450;SDS011;38366;53.176;6.540;2022-08-18T06:26:46;11.35;;;6.95;;
52450;SDS011;38366;53.176;6.540;2022-08-18T06:37:32;10.90;;;5.40;;
52450;SDS011;38366;53.176;6.540;2022-08-18T06:42:48;11.10;;;4.97;;
52450;SDS011;38366;53.176;6.540;2022-08-18T06:45:14;10.48;;;4.93;;
52450;SDS011;38366;53.176;6.540;2022-08-18T06:51:08;12.75;;;4.47;;
52450;SDS011;38366;53.176;6.540;2022-08-18T06:58:49;16.65;;;4.35;;
52450;SDS011;38366;53.176;6.540;2022-08-18T07:01:19;13.38;;;4.05;;
52450;SDS011;38366;53.176;6.540;2022-08-18T07:03:51;11.30;;;3.40;;
52450;SDS011;38366;53.176;6.540;2022-08-18T07:08:46;14.35;;;3.45;;
52450;SDS011;38366;53.176;6.540;2022-08-18T07:13:53;9.77;;;3.17;;
52450;SDS011;38366;53.176;6.540;2022-08-18T07:16:28;13.27;;;3.78;;
52450;SDS011;38366;53.176;6.540;2022-08-18T07:21:35;8.77;;;3.28;;
52450;SDS011;38366;53.176;6.540;2022-08-18T07:24:06;9.90;;;3.92;;
52450;SDS011;38366;53.176;6.540;2022-08-18T07:29:24;12.55;;;3.83;;
52450;SDS011;38366;53.176;6.540;2022-08-18T07:31:50;10.15;;;3.20;;
52450;SDS011;38366;53.176;6.540;2022-08-18T07:34:20;9.27;;;3.50;;
52450;SDS011;38366;53.176;6.540;2022-08-18T07:42:27;10.95;;;3.50;;
52450;SDS011;38366;53.176;6.540;2022-08-18T07:45:05;12.10;;;3.38;;
52450;SDS011;38366;53.176;6.540;2022-08-18T07:47:44;8.85;;;3.42;;
52450;SDS011;38366;53.176;6.540;2022-08-18T07:50:27;6.00;;;3.23;;
52450;SDS011;38366;53.176;6.540;2022-08-18T07:55:49;6.80;;;3.13;;
52450;SDS011;38366;53.176;6.540;2022-08-18T08:06:42;12.60;;;2.55;;
52450;SDS011;38366;53.176;6.540;2022-08-18T08:17:17;5.10;;;1.92;;
52450;SDS011;38366;53.176;6.540;2022-08-18T08:25:09;7.63;;;1.75;;
52450;SDS011;38366;53.176;6.540;2022-08-18T08:30:32;4.55;;;1.58;;
52450;SDS011;38366;53.176;6.540;2022-08-18T08:33:09;3.53;;;1.52;;
52450;SDS011;38366;53.176;6.540;2022-08-18T08:35:48;3.17;;;1.50;;
52450;SDS011;38366;53.176;6.540;2022-08-18T08:38:40;3.72;;;1.17;;
52450;SDS011;38366;53.176;6.540;2022-08-18T08:41:55;4.32;;;1.42;;
52450;SDS011;38366;53.176;6.540;2022-08-18T08:44:13;4.38;;;1.60;;
52450;SDS011;38366;53.176;6.540;2022-08-18T08:46:49;3.67;;;1.13;;
52450;SDS011;38366;53.176;6.540;2022-08-18T08:49:31;2.97;;;1.20;;
52450;SDS011;38366;53.176;6.540;2022-08-18T08:52:17;2.45;;;1.00;;
52450;SDS011;38366;53.176;6.540;2022-08-18T08:55:13;3.30;;;1.20;;
52450;SDS011;38366;53.176;6.540;2022-08-18T09:00:45;3.75;;;1.10;;
52450;SDS011;38366;53.176;6.540;2022-08-18T09:08:56;2.95;;;1.20;;
52450;SDS011;38366;53.176;6.540;2022-08-18T09:25:30;2.75;;;1.33;;
52450;SDS011;38366;53.176;6.540;2022-08-18T09:28:07;4.10;;;1.73;;
52450;SDS011;38366;53.176;6.540;2022-08-18T09:30:40;6.32;;;1.70;;
52450;SDS011;38366;53.176;6.540;2022-08-18T09:35:57;4.20;;;1.20;;
52450;SDS011;38366;53.176;6.540;2022-08-18T09:38:33;4.35;;;1.30;;
52450;SDS011;38366;53.176;6.540;2022-08-18T09:41:30;3.55;;;1.63;;
52450;SDS011;38366;53.176;6.540;2022-08-18T09:44:03;3.67;;;1.50;;
52450;SDS011;38366;53.176;6.540;2022-08-18T09:52:44;3.95;;;1.50;;
52450;SDS011;38366;53.176;6.540;2022-08-18T09:57:29;5.75;;;1.35;;
52450;SDS011;38366;53.176;6.540;2022-08-18T10:07:50;3.88;;;1.15;;
52450;SDS011;38366;53.176;6.540;2022-08-18T10:16:09;1.63;;;0.80;;
52450;SDS011;38366;53.176;6.540;2022-08-18T10:22:00;3.00;;;0.90;;
52450;SDS011;38366;53.176;6.540;2022-08-18T10:36:54;2.83;;;1.00;;
52450;SDS011;38366;53.176;6.540;2022-08-18T10:44:51;3.25;;;1.00;;
52450;SDS011;38366;53.176;6.540;2022-08-18T10:47:25;3.63;;;1.20;;
52450;SDS011;38366;53.176;6.540;2022-08-18T10:49:53;4.25;;;1.42;;
52450;SDS011;38366;53.176;6.540;2022-08-18T10:54:56;4.85;;;1.38;;
52450;SDS011;38366;53.176;6.540;2022-08-18T11:05:19;2.80;;;1.40;;
52450;SDS011;38366;53.176;6.540;2022-08-18T11:07:48;4.60;;;1.17;;
52450;SDS011;38366;53.176;6.540;2022-08-18T11:10:39;2.80;;;1.27;;
52450;SDS011;38366;53.176;6.540;2022-08-18T11:18:35;3.17;;;1.73;;
52450;SDS011;38366;53.176;6.540;2022-08-18T11:24:22;3.63;;;1.42;;
52450;SDS011;38366;53.176;6.540;2022-08-18T11:26:54;3.63;;;0.88;;
52450;SDS011;38366;53.176;6.540;2022-08-18T11:29:29;3.35;;;1.30;;
52450;SDS011;38366;53.176;6.540;2022-08-18T11:32:08;3.20;;;0.80;;
52450;SDS011;38366;53.176;6.540;2022-08-18T11:34:43;2.58;;;1.10;;
52450;SDS011;38366;53.176;6.540;2022-08-18T11:40:05;1.50;;;0.90;;
52450;SDS011;38366;53.176;6.540;2022-08-18T11:42:38;2.00;;;0.90;;
52450;SDS011;38366;53.176;6.540;2022-08-18T11:45:14;3.03;;;0.90;;
52450;SDS011;38366;53.176;6.540;2022-08-18T11:47:59;1.52;;;0.73;;
52450;SDS011;38366;53.176;6.540;2022-08-18T11:50:45;2.30;;;1.05;;
52450;SDS011;38366;53.176;6.540;2022-08-18T11:53:33;2.05;;;0.93;;
52450;SDS011;38366;53.176;6.540;2022-08-18T11:59:01;3.50;;;1.10;;
52450;SDS011;38366;53.176;6.540;2022-08-18T12:06:39;4.47;;;1.10;;
52450;SDS011;38366;53.176;6.540;2022-08-18T12:09:25;3.78;;;1.35;;
52450;SDS011;38366;53.176;6.540;2022-08-18T12:12:12;3.15;;;1.15;;
52450;SDS011;38366;53.176;6.540;2022-08-18T12:17:19;2.45;;;1.08;;
52450;SDS011;38366;53.176;6.540;2022-08-18T12:19:46;5.30;;;1.40;;
52450;SDS011;38366;53.176;6.540;2022-08-18T12:22:16;2.95;;;1.02;;
52450;SDS011;38366;53.176;6.540;2022-08-18T12:25:06;3.50;;;1.02;;
52450;SDS011;38366;53.176;6.540;2022-08-18T12:27:34;3.58;;;1.10;;
52450;SDS011;38366;53.176;6.540;2022-08-18T12:30:00;2.35;;;0.95;;
52450;SDS011;38366;53.176;6.540;2022-08-18T12:32:28;2.85;;;1.05;;
52450;SDS011;38366;53.176;6.540;2022-08-18T12:34:54;3.53;;;0.70;;
52450;SDS011;38366;53.176;6.540;2022-08-18T12:37:22;2.10;;;1.10;;
52450;SDS011;38366;53.176;6.540;2022-08-18T12:39:50;2.90;;;1.20;;
52450;SDS011;38366;53.176;6.540;2022-08-18T12:42:16;2.05;;;0.88;;
52450;SDS011;38366;53.176;6.540;2022-08-18T12:44:43;3.75;;;0.98;;
52450;SDS011;38366;53.176;6.540;2022-08-18T12:47:09;2.25;;;0.90;;
52450;SDS011;38366;53.176;6.540;2022-08-18T12:49:37;2.08;;;1.00;;
52450;SDS011;38366;53.176;6.540;2022-08-18T12:52:02;3.08;;;0.95;;
52450;SDS011;38366;53.176;6.540;2022-08-18T12:54:29;3.30;;;1.10;;
52450;SDS011;38366;53.176;6.540;2022-08-18T12:56:56;2.65;;;1.10;;
52450;SDS011;38366;53.176;6.540;2022-08-18T12:59:22;2.90;;;1.00;;
52450;SDS011;38366;53.176;6.540;2022-08-18T13:01:48;2.15;;;1.00;;
52450;SDS011;38366;53.176;6.540;2022-08-18T13:04:14;1.50;;;0.73;;
52450;SDS011;38366;53.176;6.540;2022-08-18T13:06:45;1.98;;;0.80;;
52450;SDS011;38366;53.176;6.540;2022-08-18T13:09:17;2.50;;;0.90;;
52450;SDS011;38366;53.176;6.540;2022-08-18T13:11:44;3.70;;;1.00;;
52450;SDS011;38366;53.176;6.540;2022-08-18T13:14:10;2.85;;;1.10;;
52450;SDS011;38366;53.176;6.540;2022-08-18T13:16:38;2.75;;;0.93;;
52450;SDS011;38366;53.176;6.540;2022-08-18T13:19:08;3.28;;;1.20;;
52450;SDS011;38366;53.176;6.540;2022-08-18T13:21:35;1.75;;;0.73;;
52450;SDS011;38366;53.176;6.540;2022-08-18T13:24:01;4.03;;;1.10;;
52450;SDS011;38366;53.176;6.540;2022-08-18T13:26:34;2.78;;;0.90;;
52450;SDS011;38366;53.176;6.540;2022-08-18T13:29:02;1.75;;;0.73;;
52450;SDS011;38366;53.176;6.540;2022-08-18T13:31:29;1.77;;;0.90;;
52450;SDS011;38366;53.176;6.540;2022-08-18T13:33:56;2.58;;;0.90;;
52450;SDS011;38366;53.176;6.540;2022-08-18T13:36:23;3.33;;;0.90;;
52450;SDS011;38366;53.176;6.540;2022-08-18T13:38:50;0.77;;;0.70;;
52450;SDS011;38366;53.176;6.540;2022-08-18T13:41:18;1.73;;;0.90;;
52450;SDS011;38366;53.176;6.540;2022-08-18T13:43:46;3.13;;;0.98;;
52450;SDS011;38366;53.176;6.540;2022-08-18T13:46:14;1.63;;;0.88;;
52450;SDS011;38366;53.176;6.540;2022-08-18T13:48:42;2.50;;;0.90;;
52450;SDS011;38366;53.176;6.540;2022-08-18T13:51:14;1.50;;;0.93;;
52450;SDS011;38366;53.176;6.540;2022-08-18T13:53:46;1.98;;;0.90;;
52450;SDS011;38366;53.176;6.540;2022-08-18T13:56:12;2.25;;;1.15;;
52450;SDS011;38366;53.176;6.540;2022-08-18T13:58:38;2.45;;;1.02;;
52450;SDS011;38366;53.176;6.540;2022-08-18T14:01:05;3.40;;;1.00;;
52450;SDS011;38366;53.176;6.540;2022-08-18T14:03:31;4.28;;;1.20;;
52450;SDS011;38366;53.176;6.540;2022-08-18T14:05:59;1.65;;;0.80;;
52450;SDS011;38366;53.176;6.540;2022-08-18T14:08:27;1.70;;;0.93;;
52450;SDS011;38366;53.176;6.540;2022-08-18T14:10:55;3.15;;;1.10;;
52450;SDS011;38366;53.176;6.540;2022-08-18T14:13:26;1.88;;;1.00;;
52450;SDS011;38366;53.176;6.540;2022-08-18T14:15:53;1.63;;;0.88;;
52450;SDS011;38366;53.176;6.540;2022-08-18T14:18:20;2.05;;;1.02;;
52450;SDS011;38366;53.176;6.540;2022-08-18T14:20:47;2.33;;;1.10;;
52450;SDS011;38366;53.176;6.540;2022-08-18T14:23:31;3.78;;;1.33;;
52450;SDS011;38366;53.176;6.540;2022-08-18T14:26:15;2.03;;;0.80;;
52450;SDS011;38366;53.176;6.540;2022-08-18T14:29:14;2.35;;;1.10;;
52450;SDS011;38366;53.176;6.540;2022-08-18T14:31:40;1.60;;;0.95;;
52450;SDS011;38366;53.176;6.540;2022-08-18T14:34:06;2.88;;;1.10;;
52450;SDS011;38366;53.176;6.540;2022-08-18T14:36:32;1.65;;;1.00;;
52450;SDS011;38366;53.176;6.540;2022-08-18T14:38:59;5.05;;;1.10;;
52450;SDS011;38366;53.176;6.540;2022-08-18T14:41:26;2.88;;;0.98;;
52450;SDS011;38366;53.176;6.540;2022-08-18T14:43:52;4.13;;;1.00;;
52450;SDS011;38366;53.176;6.540;2022-08-18T14:46:20;3.40;;;1.17;;
52450;SDS011;38366;53.176;6.540;2022-08-18T14:48:47;1.85;;;1.10;;
52450;SDS011;38366;53.176;6.540;2022-08-18T14:51:12;2.95;;;1.08;;
52450;SDS011;38366;53.176;6.540;2022-08-18T14:56:05;2.40;;;1.00;;
52450;SDS011;38366;53.176;6.540;2022-08-18T14:58:32;3.30;;;1.65;;
52450;SDS011;38366;53.176;6.540;2022-08-18T15:01:03;2.47;;;1.10;;
52450;SDS011;38366;53.176;6.540;2022-08-18T15:03:32;4.00;;;1.42;;
52450;SDS011;38366;53.176;6.540;2022-08-18T15:05:59;3.25;;;1.02;;
52450;SDS011;38366;53.176;6.540;2022-08-18T15:08:26;2.38;;;1.33;;
52450;SDS011;38366;53.176;6.540;2022-08-18T15:10:53;2.15;;;1.20;;
52450;SDS011;38366;53.176;6.540;2022-08-18T15:13:19;2.67;;;1.30;;
52450;SDS011;38366;53.176;6.540;2022-08-18T15:15:45;1.73;;;0.90;;
52450;SDS011;38366;53.176;6.540;2022-08-18T15:18:11;2.40;;;1.08;;
52450;SDS011;38366;53.176;6.540;2022-08-18T15:23:23;1.67;;;1.33;;
52450;SDS011;38366;53.176;6.540;2022-08-18T15:26:08;1.35;;;1.00;;
52450;SDS011;38366;53.176;6.540;2022-08-18T15:28:35;2.03;;;1.20;;
52450;SDS011;38366;53.176;6.540;2022-08-18T15:31:02;1.27;;;0.93;;
52450;SDS011;38366;53.176;6.540;2022-08-18T15:33:28;3.03;;;1.27;;
52450;SDS011;38366;53.176;6.540;2022-08-18T15:35:53;1.95;;;1.15;;
52450;SDS011;38366;53.176;6.540;2022-08-18T15:38:21;2.97;;;1.10;;
52450;SDS011;38366;53.176;6.540;2022-08-18T15:43:22;3.60;;;1.63;;
52450;SDS011;38366;53.176;6.540;2022-08-18T15:45:49;3.20;;;1.20;;
52450;SDS011;38366;53.176;6.540;2022-08-18T15:48:16;2.08;;;1.10;;
52450;SDS011;38366;53.176;6.540;2022-08-18T15:50:43;3.25;;;1.33;;
52450;SDS011;38366;53.176;6.540;2022-08-18T15:53:13;3.00;;;1.48;;
52450;SDS011;38366;53.176;6.540;2022-08-18T15:55:41;2.45;;;1.08;;
52450;SDS011;38366;53.176;6.540;2022-08-18T15:58:07;2.33;;;1.25;;
52450;SDS011;38366;53.176;6.540;2022-08-18T16:00:34;3.25;;;1.25;;
52450;SDS011;38366;53.176;6.540;2022-08-18T16:03:02;3.55;;;1.52;;
52450;SDS011;38366;53.176;6.540;2022-08-18T16:05:31;2.25;;;1.23;;
52450;SDS011;38366;53.176;6.540;2022-08-18T16:08:01;2.00;;;1.20;;
52450;SDS011;38366;53.176;6.540;2022-08-18T16:10:28;2.80;;;1.20;;
52450;SDS011;38366;53.176;6.540;2022-08-18T16:12:57;2.17;;;1.20;;
52450;SDS011;38366;53.176;6.540;2022-08-18T16:15:28;3.72;;;1.20;;
52450;SDS011;38366;53.176;6.540;2022-08-18T16:17:57;4.85;;;1.20;;
52450;SDS011;38366;53.176;6.540;2022-08-18T16:20:23;1.73;;;1.20;;
52450;SDS011;38366;53.176;6.540;2022-08-18T16:22:50;2.95;;;1.20;;
52450;SDS011;38366;53.176;6.540;2022-08-18T16:25:17;2.17;;;1.20;;
52450;SDS011;38366;53.176;6.540;2022-08-18T16:27:43;4.63;;;1.52;;
52450;SDS011;38366;53.176;6.540;2022-08-18T16:30:13;1.90;;;1.25;;
52450;SDS011;38366;53.176;6.540;2022-08-18T16:32:41;2.85;;;1.27;;
52450;SDS011;38366;53.176;6.540;2022-08-18T16:37:33;2.45;;;1.30;;
52450;SDS011;38366;53.176;6.540;2022-08-18T16:42:24;2.30;;;1.45;;
52450;SDS011;38366;53.176;6.540;2022-08-18T16:44:56;5.10;;;1.52;;
52450;SDS011;38366;53.176;6.540;2022-08-18T16:49:47;4.28;;;1.27;;
52450;SDS011;38366;53.176;6.540;2022-08-18T16:52:15;2.22;;;1.45;;
52450;SDS011;38366;53.176;6.540;2022-08-18T16:54:43;1.65;;;1.10;;
52450;SDS011;38366;53.176;6.540;2022-08-18T16:57:09;3.25;;;1.33;;
52450;SDS011;38366;53.176;6.540;2022-08-18T17:02:20;1.80;;;1.50;;
52450;SDS011;38366;53.176;6.540;2022-08-18T17:05:05;2.50;;;1.30;;
52450;SDS011;38366;53.176;6.540;2022-08-18T17:07:33;3.15;;;1.60;;
52450;SDS011;38366;53.176;6.540;2022-08-18T17:09:59;3.33;;;1.33;;
52450;SDS011;38366;53.176;6.540;2022-08-18T17:12:26;3.92;;;1.50;;
52450;SDS011;38366;53.176;6.540;2022-08-18T17:14:53;4.28;;;1.02;;
52450;SDS011;38366;53.176;6.540;2022-08-18T17:17:20;3.22;;;1.48;;
52450;SDS011;38366;53.176;6.540;2022-08-18T17:19:46;3.38;;;1.40;;
52450;SDS011;38366;53.176;6.540;2022-08-18T17:22:14;3.28;;;1.55;;
52450;SDS011;38366;53.176;6.540;2022-08-18T17:24:41;2.88;;;1.40;;
52450;SDS011;38366;53.176;6.540;2022-08-18T17:27:12;2.28;;;1.40;;
52450;SDS011;38366;53.176;6.540;2022-08-18T17:32:19;3.05;;;1.73;;
52450;SDS011;38366;53.176;6.540;2022-08-18T17:34:54;3.38;;;1.55;;
52450;SDS011;38366;53.176;6.540;2022-08-18T17:39:58;2.55;;;1.50;;
52450;SDS011;38366;53.176;6.540;2022-08-18T17:42:32;4.00;;;1.50;;
52450;SDS011;38366;53.176;6.540;2022-08-18T17:45:00;4.40;;;1.83;;
52450;SDS011;38366;53.176;6.540;2022-08-18T17:50:27;3.13;;;1.50;;
52450;SDS011;38366;53.176;6.540;2022-08-18T17:53:17;2.67;;;1.42;;
52450;SDS011;38366;53.176;6.540;2022-08-18T17:55:44;2.75;;;1.60;;
52450;SDS011;38366;53.176;6.540;2022-08-18T17:58:35;3.03;;;1.60;;
52450;SDS011;38366;53.176;6.540;2022-08-18T18:01:07;4.95;;;1.60;;
52450;SDS011;38366;53.176;6.540;2022-08-18T18:03:35;4.30;;;1.60;;
52450;SDS011;38366;53.176;6.540;2022-08-18T18:06:23;5.32;;;2.10;;
52450;SDS011;38366;53.176;6.540;2022-08-18T18:09:00;3.90;;;1.80;;
52450;SDS011;38366;53.176;6.540;2022-08-18T18:11:36;3.15;;;1.67;;
52450;SDS011;38366;53.176;6.540;2022-08-18T18:14:22;4.13;;;1.60;;
52450;SDS011;38366;53.176;6.540;2022-08-18T18:19:26;3.10;;;1.40;;
52450;SDS011;38366;53.176;6.540;2022-08-18T18:22:00;3.35;;;1.67;;
52450;SDS011;38366;53.176;6.540;2022-08-18T18:24:31;2.15;;;1.40;;
52450;SDS011;38366;53.176;6.540;2022-08-18T18:26:59;3.13;;;1.38;;
52450;SDS011;38366;53.176;6.540;2022-08-18T18:29:26;2.85;;;1.52;;
52450;SDS011;38366;53.176;6.540;2022-08-18T18:35:01;2.90;;;1.48;;
52450;SDS011;38366;53.176;6.540;2022-08-18T18:38:01;2.45;;;1.45;;
52450;SDS011;38366;53.176;6.540;2022-08-18T18:43:42;4.60;;;1.60;;